createdAt,value
2016-11-08T00:00:49.260Z,0.07
2016-11-08T00:01:50.066Z,0.07
2016-11-08T00:02:50.409Z,0.16
2016-11-08T00:03:50.929Z,0.34
2016-11-08T00:04:51.258Z,0.34
2016-11-08T00:05:51.904Z,0.25
2016-11-08T00:06:52.277Z,0.25
2016-11-08T00:07:52.761Z,0.07
2016-11-08T00:08:53.258Z,0.07
2016-11-08T00:09:53.897Z,0.07
2016-11-08T00:10:54.418Z,0.07
2016-11-08T00:11:54.798Z,0.07
2016-11-08T00:12:55.239Z,0.07
2016-11-08T00:13:55.759Z,0.07
2016-11-08T00:14:56.245Z,0.07
2016-11-08T00:15:56.898Z,0.07
2016-11-08T00:16:57.274Z,0.07
2016-11-08T00:17:57.755Z,0.07
2016-11-08T00:18:58.259Z,0.07
2016-11-08T00:19:58.758Z,0.07
2016-11-08T00:20:59.405Z,0.07
2016-11-08T00:22:00.058Z,0.07
2016-11-08T00:23:00.403Z,0.07
2016-11-08T00:24:00.768Z,0.07
2016-11-08T00:25:01.281Z,0.07
2016-11-08T00:26:01.759Z,0.07
2016-11-08T00:27:02.277Z,0.06
2016-11-08T00:28:02.800Z,0.06
2016-11-08T00:29:03.261Z,0.07
2016-11-08T00:30:03.749Z,0.06
2016-11-08T00:31:04.273Z,0.34
2016-11-08T00:32:04.891Z,0.34
2016-11-08T00:33:05.394Z,0.06
2016-11-08T00:34:05.756Z,0.06
2016-11-08T00:35:06.390Z,0.07
2016-11-08T00:36:06.750Z,0.07
2016-11-08T00:37:07.239Z,0.07
2016-11-08T00:38:07.768Z,0.07
2016-11-08T00:39:08.239Z,0.16
2016-11-08T00:40:08.741Z,0.34
2016-11-08T00:41:09.232Z,0.44
2016-11-08T00:42:09.883Z,0.34
2016-11-08T00:43:10.243Z,0.52
2016-11-08T00:44:10.730Z,0.44
2016-11-08T00:45:11.371Z,0.07
2016-11-08T00:46:11.868Z,0.07
2016-11-08T00:47:12.364Z,0.25
2016-11-08T00:48:12.871Z,0.07
2016-11-08T00:49:13.238Z,0.07
2016-11-08T00:50:13.719Z,0.07
2016-11-08T00:51:14.362Z,0.07
2016-11-08T00:52:14.755Z,0.07
2016-11-08T00:53:15.383Z,0.07
2016-11-08T00:54:15.715Z,0.07
2016-11-08T00:55:16.209Z,0.07
2016-11-08T00:56:16.856Z,0.07
2016-11-08T00:57:17.209Z,0.07
2016-11-08T00:58:17.766Z,0.06
2016-11-08T00:59:18.209Z,0.34
2016-11-08T01:00:18.855Z,0.43
2016-11-08T01:01:19.356Z,0.07
2016-11-08T01:02:19.700Z,0.07
2016-11-08T01:03:20.201Z,0.07
2016-11-08T01:04:20.727Z,0.07
2016-11-08T01:05:21.499Z,0.07
2016-11-08T01:06:21.735Z,0.07
2016-11-08T01:07:22.206Z,0.07
2016-11-08T01:08:22.856Z,0.07
2016-11-08T01:09:23.219Z,0.07
2016-11-08T01:10:23.847Z,0.08
2016-11-08T01:11:24.348Z,0.07
2016-11-08T01:12:24.696Z,0.07
2016-11-08T01:13:25.341Z,0.07
2016-11-08T01:14:25.701Z,0.07
2016-11-08T01:15:26.192Z,0.07
2016-11-08T01:16:26.713Z,0.07
2016-11-08T01:17:27.192Z,0.07
2016-11-08T01:18:27.832Z,0.07
2016-11-08T01:19:28.198Z,0.07
2016-11-08T01:20:28.688Z,0.25
2016-11-08T01:21:29.190Z,0.24
2016-11-08T01:22:29.681Z,0.07
2016-11-08T01:23:30.325Z,0.07
2016-11-08T01:24:30.688Z,0.81
2016-11-08T01:25:31.174Z,0.81
2016-11-08T01:26:31.819Z,0.90
2016-11-08T01:27:32.319Z,0.90
2016-11-08T01:28:32.817Z,1.27
2016-11-08T01:29:33.180Z,0.99
2016-11-08T01:30:33.837Z,0.71
2016-11-08T01:31:34.165Z,0.70
2016-11-08T01:32:34.814Z,0.99
2016-11-08T01:33:35.321Z,0.90
2016-11-08T01:34:35.815Z,1.18
2016-11-08T01:35:36.326Z,0.81
2016-11-08T01:36:36.672Z,0.62
2016-11-08T01:37:37.317Z,0.62
2016-11-08T01:38:37.671Z,0.99
2016-11-08T01:39:38.179Z,0.71
2016-11-08T01:40:38.663Z,1.27
2016-11-08T01:41:39.316Z,0.52
2016-11-08T01:42:39.690Z,1.18
2016-11-08T01:43:40.164Z,1.09
2016-11-08T01:44:40.703Z,1.74
2016-11-08T01:45:41.310Z,0.89
2016-11-08T01:46:41.663Z,1.08
2016-11-08T01:47:42.366Z,0.99
2016-11-08T01:48:42.802Z,0.89
2016-11-08T01:49:43.187Z,1.26
2016-11-08T01:50:43.666Z,0.99
2016-11-08T01:51:44.148Z,0.62
2016-11-08T01:52:44.649Z,0.34
2016-11-08T01:53:45.180Z,1.08
2016-11-08T01:54:45.660Z,0.52
2016-11-08T01:55:46.151Z,0.44
2016-11-08T01:56:46.641Z,0.43
2016-11-08T01:57:47.151Z,1.55
2016-11-08T01:58:47.641Z,1.65
2016-11-08T01:59:48.160Z,1.09
2016-11-08T02:00:48.632Z,0.90
2016-11-08T02:01:49.173Z,0.99
2016-11-08T02:02:49.632Z,0.71
2016-11-08T02:03:50.275Z,0.44
2016-11-08T02:04:50.785Z,1.08
2016-11-08T02:05:51.267Z,1.18
2016-11-08T02:06:51.772Z,1.27
2016-11-08T02:07:52.269Z,0.99
2016-11-08T02:08:52.762Z,0.62
2016-11-08T02:09:53.142Z,1.27
2016-11-08T02:10:53.631Z,1.18
2016-11-08T02:11:54.265Z,1.08
2016-11-08T02:12:54.758Z,0.44
2016-11-08T02:13:55.134Z,0.44
2016-11-08T02:14:55.652Z,0.07
2016-11-08T02:15:56.158Z,0.44
2016-11-08T02:16:56.624Z,0.34
2016-11-08T02:17:57.282Z,0.62
2016-11-08T02:18:57.626Z,0.52
2016-11-08T02:19:58.110Z,0.44
2016-11-08T02:20:58.777Z,0.43
2016-11-08T02:21:59.124Z,0.52
2016-11-08T02:22:59.757Z,0.34
2016-11-08T02:24:00.269Z,0.52
2016-11-08T02:25:00.629Z,0.62
2016-11-08T02:26:01.255Z,0.89
2016-11-08T02:27:01.636Z,0.90
2016-11-08T02:28:02.270Z,0.62
2016-11-08T02:29:02.753Z,0.34
2016-11-08T02:30:03.264Z,0.52
2016-11-08T02:31:03.628Z,0.52
2016-11-08T02:32:04.104Z,0.34
2016-11-08T02:33:04.740Z,0.71
2016-11-08T02:34:05.104Z,0.71
2016-11-08T02:35:05.601Z,0.43
2016-11-08T02:36:06.248Z,0.99
2016-11-08T02:37:06.591Z,0.81
2016-11-08T02:38:07.251Z,0.90
2016-11-08T02:39:07.600Z,0.71
2016-11-08T02:40:08.117Z,0.99
2016-11-08T02:41:08.623Z,0.89
2016-11-08T02:42:09.079Z,0.99
2016-11-08T02:43:09.579Z,0.89
2016-11-08T02:44:10.072Z,0.52
2016-11-08T02:45:10.592Z,0.99
2016-11-08T02:46:11.107Z,0.43
2016-11-08T02:47:11.717Z,0.43
2016-11-08T02:48:12.222Z,0.43
2016-11-08T02:49:12.712Z,0.07
2016-11-08T02:50:13.068Z,0.07
2016-11-08T02:51:13.578Z,0.25
2016-11-08T02:52:14.059Z,0.06
2016-11-08T02:53:14.578Z,0.52
2016-11-08T02:54:15.074Z,0.15
2016-11-08T02:55:15.706Z,0.43
2016-11-08T02:56:16.060Z,0.07
2016-11-08T02:57:16.562Z,0.07
2016-11-08T02:58:17.061Z,0.37
2016-11-08T02:59:17.566Z,0.99
2016-11-08T03:00:18.090Z,0.34
2016-11-08T03:01:18.706Z,0.06
2016-11-08T03:02:19.064Z,0.07
2016-11-08T03:03:19.577Z,0.06
2016-11-08T03:04:20.086Z,0.07
2016-11-08T03:05:20.611Z,0.43
2016-11-08T03:06:21.055Z,0.24
2016-11-08T03:07:21.556Z,0.80
2016-11-08T03:08:22.067Z,0.52
2016-11-08T03:09:22.703Z,0.43
2016-11-08T03:10:23.210Z,0.33
2016-11-08T03:11:23.591Z,0.89
2016-11-08T03:12:24.192Z,0.80
2016-11-08T03:13:24.691Z,0.34
2016-11-08T03:14:25.052Z,0.43
2016-11-08T03:15:25.545Z,0.52
2016-11-08T03:16:26.035Z,0.25
2016-11-08T03:17:26.540Z,0.25
2016-11-08T03:18:27.036Z,0.43
2016-11-08T03:19:27.534Z,0.52
2016-11-08T03:20:28.035Z,0.34
2016-11-08T03:21:28.541Z,0.25
2016-11-08T03:22:29.177Z,0.07
2016-11-08T03:23:29.546Z,0.06
2016-11-08T03:24:30.178Z,0.07
2016-11-08T03:25:30.683Z,0.15
2016-11-08T03:26:31.063Z,0.15
2016-11-08T03:27:31.540Z,0.43
2016-11-08T03:28:32.049Z,0.52
2016-11-08T03:29:32.678Z,0.34
2016-11-08T03:30:33.049Z,0.15
2016-11-08T03:31:33.519Z,0.25
2016-11-08T03:32:34.185Z,0.34
2016-11-08T03:33:34.534Z,0.25
2016-11-08T03:34:35.032Z,0.07
2016-11-08T03:35:35.523Z,0.07
2016-11-08T03:36:36.035Z,0.07
2016-11-08T03:37:36.538Z,0.07
2016-11-08T03:38:37.176Z,0.25
2016-11-08T03:39:37.540Z,0.25
2016-11-08T03:40:38.013Z,0.44
2016-11-08T03:41:38.659Z,0.34
2016-11-08T03:42:39.043Z,0.07
2016-11-08T03:43:39.508Z,0.07
2016-11-08T03:44:40.156Z,0.07
2016-11-08T03:45:40.649Z,0.07
2016-11-08T03:46:41.154Z,0.25
2016-11-08T03:47:41.525Z,0.34
2016-11-08T03:48:42.032Z,0.25
2016-11-08T03:49:42.494Z,0.07
2016-11-08T03:50:42.990Z,0.07
2016-11-08T03:51:43.501Z,0.25
2016-11-08T03:52:44.011Z,0.34
2016-11-08T03:53:44.505Z,0.15
2016-11-08T03:54:45.173Z,0.34
2016-11-08T03:55:45.630Z,0.25
2016-11-08T03:56:45.984Z,0.15
2016-11-08T03:57:46.482Z,0.07
2016-11-08T03:58:47.010Z,0.07
2016-11-08T03:59:47.622Z,0.07
2016-11-08T04:00:47.979Z,0.34
2016-11-08T04:01:48.480Z,0.06
2016-11-08T04:02:49.125Z,0.06
2016-11-08T04:03:49.470Z,0.06
2016-11-08T04:04:50.113Z,0.06
2016-11-08T04:05:50.468Z,0.06
2016-11-08T04:06:50.968Z,0.07
2016-11-08T04:07:51.465Z,0.07
2016-11-08T04:08:51.976Z,0.07
2016-11-08T04:09:52.613Z,0.07
2016-11-08T04:10:52.953Z,0.06
2016-11-08T04:11:53.607Z,0.06
2016-11-08T04:12:53.971Z,0.06
2016-11-08T04:13:54.455Z,0.06
2016-11-08T04:14:55.105Z,0.07
2016-11-08T04:15:55.607Z,0.07
2016-11-08T04:16:55.985Z,0.07
2016-11-08T04:17:56.466Z,0.07
2016-11-08T04:18:57.125Z,0.34
2016-11-08T04:19:57.612Z,0.44
2016-11-08T04:20:57.961Z,0.44
2016-11-08T04:21:58.626Z,0.07
2016-11-08T04:22:59.117Z,0.90
2016-11-08T04:23:59.608Z,0.71
2016-11-08T04:24:59.962Z,0.62
2016-11-08T04:26:00.604Z,0.90
2016-11-08T04:27:00.989Z,0.99
2016-11-08T04:28:01.462Z,0.71
2016-11-08T04:29:02.099Z,1.27
2016-11-08T04:30:02.603Z,1.93
2016-11-08T04:31:02.956Z,1.36
2016-11-08T04:32:03.447Z,1.19
2016-11-08T04:33:03.942Z,0.52
2016-11-08T04:34:04.588Z,0.34
2016-11-08T04:35:04.956Z,0.61
2016-11-08T04:36:05.583Z,0.71
2016-11-08T04:37:06.112Z,0.52
2016-11-08T04:38:06.451Z,0.52
2016-11-08T04:39:07.081Z,0.34
2016-11-08T04:40:07.436Z,0.71
2016-11-08T04:41:08.076Z,0.71
2016-11-08T04:42:08.463Z,0.07
2016-11-08T04:43:09.077Z,0.99
2016-11-08T04:44:09.572Z,0.71
2016-11-08T04:45:09.919Z,0.52
2016-11-08T04:46:10.423Z,0.99
2016-11-08T04:47:10.944Z,0.99
2016-11-08T04:48:11.465Z,0.52
2016-11-08T04:49:11.914Z,0.34
2016-11-08T04:50:12.410Z,1.08
2016-11-08T04:51:13.066Z,0.99
2016-11-08T04:52:13.429Z,0.61
2016-11-08T04:53:13.922Z,1.83
2016-11-08T04:54:14.403Z,1.83
2016-11-08T04:55:14.921Z,0.71
2016-11-08T04:56:15.565Z,0.89
2016-11-08T04:57:16.063Z,1.36
2016-11-08T04:58:16.571Z,0.50
2016-11-08T04:59:16.915Z,0.70
2016-11-08T05:00:17.563Z,0.71
2016-11-08T05:01:17.912Z,0.56
2016-11-08T05:02:18.432Z,0.52
2016-11-08T05:03:18.915Z,0.80
2016-11-08T05:04:19.563Z,0.25
2016-11-08T05:05:20.058Z,0.25
2016-11-08T05:06:20.437Z,0.06
2016-11-08T05:07:20.910Z,0.06
2016-11-08T05:08:21.402Z,0.34
2016-11-08T05:09:22.050Z,0.43
2016-11-08T05:10:22.408Z,0.99
2016-11-08T05:11:22.895Z,0.43
2016-11-08T05:12:23.410Z,0.34
2016-11-08T05:13:24.044Z,0.52
2016-11-08T05:14:24.420Z,0.43
2016-11-08T05:15:24.891Z,0.06
2016-11-08T05:16:25.541Z,0.43
2016-11-08T05:17:25.889Z,0.33
2016-11-08T05:18:26.553Z,0.34
2016-11-08T05:19:26.892Z,0.62
2016-11-08T05:20:27.688Z,0.43
2016-11-08T05:21:27.898Z,0.07
2016-11-08T05:22:28.390Z,0.34
2016-11-08T05:23:28.880Z,0.34
2016-11-08T05:24:29.390Z,0.52
2016-11-08T05:25:29.889Z,0.26
2016-11-08T05:26:30.527Z,0.15
2016-11-08T05:27:30.909Z,0.06
2016-11-08T05:28:31.405Z,0.61
2016-11-08T05:29:31.892Z,0.62
2016-11-08T05:30:32.374Z,0.43
2016-11-08T05:31:32.893Z,0.52
2016-11-08T05:32:33.514Z,0.06
2016-11-08T05:33:33.896Z,0.52
2016-11-08T05:34:34.537Z,0.70
2016-11-08T05:35:34.893Z,0.52
2016-11-08T05:36:35.385Z,0.29
2016-11-08T05:37:35.902Z,0.06
2016-11-08T05:38:36.383Z,0.43
2016-11-08T05:39:37.024Z,0.24
2016-11-08T05:40:37.535Z,0.43
2016-11-08T05:41:37.869Z,0.34
2016-11-08T05:42:38.368Z,0.43
2016-11-08T05:43:39.018Z,0.52
2016-11-08T05:44:39.372Z,0.70
2016-11-08T05:45:40.014Z,0.52
2016-11-08T05:46:40.371Z,0.24
2016-11-08T05:47:40.860Z,0.24
2016-11-08T05:48:41.372Z,0.52
2016-11-08T05:49:41.859Z,0.52
2016-11-08T05:50:42.502Z,0.70
2016-11-08T05:51:42.858Z,0.07
2016-11-08T05:52:43.375Z,0.34
2016-11-08T05:53:43.879Z,0.52
2016-11-08T05:54:44.366Z,0.50
2016-11-08T05:55:44.857Z,0.52
2016-11-08T05:56:45.491Z,0.07
2016-11-08T05:57:45.865Z,0.34
2016-11-08T05:58:46.350Z,0.52
2016-11-08T05:59:46.865Z,0.34
2016-11-08T06:00:47.484Z,0.34
2016-11-08T06:01:47.836Z,0.43
2016-11-08T06:02:48.483Z,0.06
2016-11-08T06:03:48.982Z,0.06
2016-11-08T06:04:49.347Z,0.07
2016-11-08T06:05:49.976Z,0.07
2016-11-08T06:06:50.473Z,0.07
2016-11-08T06:07:50.972Z,0.07
2016-11-08T06:08:51.469Z,0.07
2016-11-08T06:09:51.823Z,0.07
2016-11-08T06:10:52.465Z,0.07
2016-11-08T06:11:52.975Z,0.07
2016-11-08T06:12:53.467Z,0.07
2016-11-08T06:13:53.819Z,0.07
2016-11-08T06:14:54.342Z,0.07
2016-11-08T06:15:54.831Z,0.07
2016-11-08T06:16:55.480Z,0.07
2016-11-08T06:17:55.843Z,0.07
2016-11-08T06:18:56.473Z,0.07
2016-11-08T06:19:56.827Z,0.06
2016-11-08T06:20:57.350Z,0.06
2016-11-08T06:21:57.971Z,0.15
2016-11-08T06:22:58.326Z,0.07
2016-11-08T06:23:58.985Z,0.07
2016-11-08T06:24:59.467Z,0.34
2016-11-08T06:25:59.831Z,0.25
2016-11-08T06:27:00.466Z,0.25
2016-11-08T06:28:00.847Z,0.15
2016-11-08T06:29:01.325Z,0.34
2016-11-08T06:30:01.808Z,0.34
2016-11-08T06:31:02.453Z,0.33
2016-11-08T06:32:02.834Z,0.24
2016-11-08T06:33:03.309Z,0.07
2016-11-08T06:34:03.798Z,0.07
2016-11-08T06:35:04.446Z,0.06
2016-11-08T06:36:04.805Z,0.06
2016-11-08T06:37:05.291Z,0.06
2016-11-08T06:38:05.945Z,0.06
2016-11-08T06:39:06.310Z,0.06
2016-11-08T06:40:06.830Z,0.43
2016-11-08T06:41:07.445Z,0.07
2016-11-08T06:42:07.801Z,0.07
2016-11-08T06:43:08.281Z,0.07
2016-11-08T06:44:08.776Z,0.07
2016-11-08T06:45:09.482Z,0.43
2016-11-08T06:46:09.789Z,0.80
2016-11-08T06:47:10.419Z,0.34
2016-11-08T06:48:10.919Z,0.70
2016-11-08T06:49:11.417Z,0.34
2016-11-08T06:50:11.783Z,1.44
2016-11-08T06:51:12.286Z,1.26
2016-11-08T06:52:12.773Z,0.80
2016-11-08T06:53:13.425Z,0.71
2016-11-08T06:54:13.779Z,0.43
2016-11-08T06:55:14.424Z,0.34
2016-11-08T06:56:14.786Z,0.43
2016-11-08T06:57:15.428Z,0.62
2016-11-08T06:58:15.925Z,0.62
2016-11-08T06:59:16.292Z,0.52
2016-11-08T07:00:16.940Z,0.61
2016-11-08T07:01:17.292Z,0.62
2016-11-08T07:02:17.771Z,0.98
2016-11-08T07:03:18.412Z,0.43
2016-11-08T07:04:18.914Z,0.52
2016-11-08T07:05:19.269Z,0.71
2016-11-08T07:06:19.776Z,0.52
2016-11-08T07:07:20.287Z,0.71
2016-11-08T07:08:20.788Z,0.43
2016-11-08T07:09:21.416Z,0.62
2016-11-08T07:10:21.776Z,0.61
2016-11-08T07:11:22.410Z,0.52
2016-11-08T07:12:22.796Z,0.81
2016-11-08T07:13:23.411Z,0.89
2016-11-08T07:14:23.776Z,0.81
2016-11-08T07:15:24.261Z,0.62
2016-11-08T07:16:24.767Z,0.61
2016-11-08T07:17:25.256Z,0.98
2016-11-08T07:18:25.766Z,1.45
2016-11-08T07:19:26.403Z,1.26
2016-11-08T07:20:26.899Z,1.45
2016-11-08T07:21:27.246Z,1.63
2016-11-08T07:22:28.012Z,0.98
2016-11-08T07:23:28.390Z,1.08
2016-11-08T07:24:28.751Z,0.98
2016-11-08T07:25:29.289Z,0.99
2016-11-08T07:26:29.760Z,0.89
2016-11-08T07:27:30.548Z,1.36
2016-11-08T07:28:30.897Z,1.08
2016-11-08T07:29:31.262Z,0.71
2016-11-08T07:30:31.754Z,0.71
2016-11-08T07:31:32.237Z,1.27
2016-11-08T07:32:32.738Z,1.08
2016-11-08T07:33:33.251Z,0.80
2016-11-08T07:34:33.893Z,2.10
2016-11-08T07:35:34.243Z,1.26
2016-11-08T07:36:34.741Z,0.89
2016-11-08T07:37:35.384Z,1.35
2016-11-08T07:38:35.887Z,1.09
2016-11-08T07:39:36.274Z,0.89
2016-11-08T07:40:36.735Z,0.62
2016-11-08T07:41:37.260Z,0.80
2016-11-08T07:42:37.734Z,1.17
2016-11-08T07:43:38.377Z,1.45
2016-11-08T07:44:38.727Z,1.09
2016-11-08T07:45:39.234Z,0.71
2016-11-08T07:46:39.877Z,1.17
2016-11-08T07:47:40.369Z,1.26
2016-11-08T07:48:40.723Z,0.61
2016-11-08T07:49:41.223Z,0.80
2016-11-08T07:50:41.731Z,1.17
2016-11-08T07:51:42.366Z,1.46
2016-11-08T07:52:42.762Z,1.27
2016-11-08T07:53:43.244Z,1.18
2016-11-08T07:54:43.720Z,1.09
2016-11-08T07:55:44.227Z,0.99
2016-11-08T07:56:44.721Z,0.99
2016-11-08T07:57:45.239Z,1.36
2016-11-08T07:58:45.860Z,1.08
2016-11-08T07:59:46.208Z,1.73
2016-11-08T08:00:46.855Z,0.71
2016-11-08T08:01:47.353Z,0.81
2016-11-08T08:02:47.852Z,0.80
2016-11-08T08:03:48.343Z,0.81
2016-11-08T08:04:48.698Z,0.71
2016-11-08T08:05:49.220Z,1.08
2016-11-08T08:06:49.715Z,0.71
2016-11-08T08:07:50.344Z,1.54
2016-11-08T08:08:50.698Z,0.70
2016-11-08T08:09:51.488Z,1.08
2016-11-08T08:10:51.691Z,0.89
2016-11-08T08:11:52.339Z,0.62
2016-11-08T08:12:52.707Z,0.52
2016-11-08T08:13:53.197Z,0.99
2016-11-08T08:14:53.709Z,0.99
2016-11-08T08:15:54.342Z,0.81
2016-11-08T08:16:54.840Z,1.26
2016-11-08T08:17:55.197Z,0.71
2016-11-08T08:18:55.715Z,0.44
2016-11-08T08:19:56.217Z,0.52
2016-11-08T08:20:56.857Z,0.90
2016-11-08T08:21:57.335Z,0.89
2016-11-08T08:22:57.720Z,0.90
2016-11-08T08:23:58.195Z,0.52
2016-11-08T08:24:58.830Z,1.08
2016-11-08T08:25:59.203Z,0.71
2016-11-08T08:26:59.695Z,0.44
2016-11-08T08:28:00.324Z,0.52
2016-11-08T08:29:00.675Z,1.27
2016-11-08T08:30:01.188Z,1.08
2016-11-08T08:31:01.823Z,0.99
2016-11-08T08:32:02.174Z,0.62
2016-11-08T08:33:02.674Z,1.36
2016-11-08T08:34:03.163Z,1.08
2016-11-08T08:35:03.712Z,1.73
2016-11-08T08:36:04.182Z,1.45
2016-11-08T08:37:04.678Z,1.36
2016-11-08T08:38:05.158Z,1.73
2016-11-08T08:39:05.674Z,1.17
2016-11-08T08:40:06.305Z,1.26
2016-11-08T08:41:06.686Z,1.36
2016-11-08T08:42:07.315Z,0.89
2016-11-08T08:43:07.648Z,0.44
2016-11-08T08:44:08.309Z,0.90
2016-11-08T08:45:08.653Z,0.81
2016-11-08T08:46:09.159Z,1.18
2016-11-08T08:47:09.656Z,0.71
2016-11-08T08:48:10.149Z,0.52
2016-11-08T08:49:10.787Z,1.09
2016-11-08T08:50:11.144Z,0.62
2016-11-08T08:51:11.639Z,1.46
2016-11-08T08:52:12.331Z,0.80
2016-11-08T08:53:12.801Z,0.62
2016-11-08T08:54:13.304Z,0.52
2016-11-08T08:55:13.636Z,0.71
2016-11-08T08:56:14.142Z,0.66
2016-11-08T08:57:14.642Z,1.18
2016-11-08T08:58:15.156Z,1.45
2016-11-08T08:59:15.666Z,1.18
2016-11-08T09:00:16.139Z,1.18
2016-11-08T09:01:16.785Z,1.55
2016-11-08T09:02:17.178Z,1.08
2016-11-08T09:03:17.651Z,1.08
2016-11-08T09:04:18.156Z,1.08
2016-11-08T09:05:18.636Z,0.71
2016-11-08T09:06:19.275Z,0.52
2016-11-08T09:07:19.629Z,1.36
2016-11-08T09:08:20.278Z,1.36
2016-11-08T09:09:20.636Z,1.18
2016-11-08T09:10:21.129Z,0.71
2016-11-08T09:11:21.691Z,1.18
2016-11-08T09:12:22.126Z,1.65
2016-11-08T09:13:22.768Z,1.09
2016-11-08T09:14:23.267Z,1.35
2016-11-08T09:15:23.650Z,1.46
2016-11-08T09:16:24.128Z,1.83
2016-11-08T09:17:24.768Z,1.08
2016-11-08T09:18:25.263Z,1.74
2016-11-08T09:19:25.770Z,1.08
2016-11-08T09:20:26.263Z,0.56
2016-11-08T09:21:26.612Z,0.71
2016-11-08T09:22:27.113Z,0.90
2016-11-08T09:23:27.654Z,1.18
2016-11-08T09:24:28.113Z,1.09
2016-11-08T09:25:28.752Z,1.08
2016-11-08T09:26:29.105Z,1.17
2016-11-08T09:27:29.609Z,1.93
2016-11-08T09:28:30.266Z,1.09
2016-11-08T09:29:30.749Z,0.81
2016-11-08T09:30:31.249Z,1.45
2016-11-08T09:31:31.607Z,1.09
2016-11-08T09:32:32.108Z,1.46
2016-11-08T09:33:32.753Z,1.36
2016-11-08T09:34:33.114Z,1.26
2016-11-08T09:35:33.783Z,0.99
2016-11-08T09:36:34.249Z,0.62
2016-11-08T09:37:34.618Z,1.18
2016-11-08T09:38:35.242Z,0.81
2016-11-08T09:39:35.589Z,1.27
2016-11-08T09:40:36.092Z,1.18
2016-11-08T09:41:36.602Z,1.36
2016-11-08T09:42:37.140Z,0.99
2016-11-08T09:43:37.602Z,0.44
2016-11-08T09:44:38.085Z,0.44
2016-11-08T09:45:38.729Z,0.81
2016-11-08T09:46:39.234Z,1.18
2016-11-08T09:47:39.626Z,1.11
2016-11-08T09:48:40.224Z,0.62
2016-11-08T09:49:40.589Z,1.09
2016-11-08T09:50:41.072Z,0.52
2016-11-08T09:51:41.592Z,1.18
2016-11-08T09:52:42.214Z,0.99
2016-11-08T09:53:42.715Z,0.81
2016-11-08T09:54:43.127Z,0.90
2016-11-08T09:55:43.566Z,0.90
2016-11-08T09:56:44.208Z,0.81
2016-11-08T09:57:44.704Z,1.36
2016-11-08T09:58:45.202Z,1.18
2016-11-08T09:59:45.567Z,1.36
2016-11-08T10:00:46.070Z,0.71
2016-11-08T10:01:46.549Z,0.81
2016-11-08T10:02:47.195Z,0.52
2016-11-08T10:03:47.697Z,0.34
2016-11-08T10:04:48.076Z,0.72
2016-11-08T10:05:48.578Z,0.62
2016-11-08T10:06:49.059Z,1.18
2016-11-08T10:07:49.700Z,0.62
2016-11-08T10:08:50.189Z,1.18
2016-11-08T10:09:50.569Z,0.81
2016-11-08T10:10:51.199Z,0.81
2016-11-08T10:11:51.701Z,1.55
2016-11-08T10:12:52.073Z,1.27
2016-11-08T10:13:52.557Z,1.37
2016-11-08T10:14:53.208Z,1.00
2016-11-08T10:15:53.703Z,0.82
2016-11-08T10:16:54.216Z,1.13
2016-11-08T10:17:54.712Z,1.00
2016-11-08T10:18:55.062Z,1.75
2016-11-08T10:19:55.553Z,1.56
2016-11-08T10:20:56.041Z,1.27
2016-11-08T10:21:56.691Z,1.37
2016-11-08T10:22:57.065Z,1.37
2016-11-08T10:23:57.545Z,0.72
2016-11-08T10:24:58.043Z,1.09
2016-11-08T10:25:58.535Z,0.81
2016-11-08T10:26:59.180Z,1.00
2016-11-08T10:27:59.542Z,1.37
2016-11-08T10:29:00.032Z,0.82
2016-11-08T10:30:00.538Z,0.90
2016-11-08T10:31:01.048Z,0.90
2016-11-08T10:32:01.535Z,1.00
2016-11-08T10:33:02.025Z,1.09
2016-11-08T10:34:02.671Z,0.90
2016-11-08T10:35:03.049Z,2.40
2016-11-08T10:36:03.676Z,2.39
2016-11-08T10:37:04.045Z,2.10
2016-11-08T10:38:04.517Z,1.46
2016-11-08T10:39:05.204Z,1.55
2016-11-08T10:40:05.668Z,1.75
2016-11-08T10:41:06.030Z,1.93
2016-11-08T10:42:06.503Z,1.09
2016-11-08T10:43:07.005Z,1.56
2016-11-08T10:44:07.539Z,1.27
2016-11-08T10:45:07.999Z,1.46
2016-11-08T10:46:08.510Z,1.27
2016-11-08T10:47:08.997Z,1.45
2016-11-08T10:48:09.498Z,1.56
2016-11-08T10:49:10.011Z,1.45
2016-11-08T10:50:10.644Z,2.10
2016-11-08T10:51:11.000Z,1.56
2016-11-08T10:52:11.648Z,1.54
2016-11-08T10:53:12.045Z,1.64
2016-11-08T10:54:12.504Z,0.90
2016-11-08T10:55:13.148Z,1.37
2016-11-08T10:56:13.498Z,1.65
2016-11-08T10:57:14.007Z,1.00
2016-11-08T10:58:14.534Z,1.55
2016-11-08T10:59:15.201Z,1.37
2016-11-08T11:00:15.657Z,1.09
2016-11-08T11:01:16.002Z,1.18
2016-11-08T11:02:16.640Z,1.18
2016-11-08T11:03:16.997Z,1.36
2016-11-08T11:04:17.640Z,1.64
2016-11-08T11:05:18.135Z,0.90
2016-11-08T11:06:18.645Z,1.09
2016-11-08T11:07:18.993Z,0.99
2016-11-08T11:08:19.638Z,1.18
2016-11-08T11:09:19.992Z,1.46
2016-11-08T11:10:20.527Z,1.09
2016-11-08T11:11:20.997Z,1.36
2016-11-08T11:12:21.489Z,1.36
2016-11-08T11:13:21.985Z,0.91
2016-11-08T11:14:22.478Z,1.09
2016-11-08T11:15:23.145Z,0.81
2016-11-08T11:16:23.519Z,0.89
2016-11-08T11:17:24.123Z,1.64
2016-11-08T11:18:24.647Z,0.99
2016-11-08T11:19:25.119Z,0.80
2016-11-08T11:20:25.486Z,1.09
2016-11-08T11:21:26.117Z,0.71
2016-11-08T11:22:26.477Z,1.36
2016-11-08T11:23:27.113Z,1.18
2016-11-08T11:24:27.463Z,1.82
2016-11-08T11:25:27.958Z,1.18
2016-11-08T11:26:28.455Z,0.89
2016-11-08T11:27:28.960Z,0.71
2016-11-08T11:28:29.473Z,0.62
2016-11-08T11:29:30.113Z,0.80
2016-11-08T11:30:30.635Z,0.71
2016-11-08T11:31:30.990Z,0.71
2016-11-08T11:32:31.494Z,0.81
2016-11-08T11:33:31.998Z,0.62
2016-11-08T11:34:32.489Z,1.08
2016-11-08T11:35:32.962Z,0.71
2016-11-08T11:36:33.626Z,0.44
2016-11-08T11:37:33.974Z,0.62
2016-11-08T11:38:34.465Z,0.99
2016-11-08T11:39:34.962Z,1.27
2016-11-08T11:40:35.601Z,0.99
2016-11-08T11:41:36.099Z,0.99
2016-11-08T11:42:36.927Z,0.89
2016-11-08T11:43:37.100Z,1.45
2016-11-08T11:44:37.598Z,0.90
2016-11-08T11:45:37.974Z,0.62
2016-11-08T11:46:38.466Z,0.99
2016-11-08T11:47:39.097Z,0.99
2016-11-08T11:48:39.438Z,1.08
2016-11-08T11:49:40.082Z,0.71
2016-11-08T11:50:40.451Z,0.44
2016-11-08T11:51:40.940Z,0.44
2016-11-08T11:52:41.437Z,0.99
2016-11-08T11:53:42.087Z,1.09
2016-11-08T11:54:42.451Z,0.90
2016-11-08T11:55:42.939Z,0.52
2016-11-08T11:56:43.425Z,0.62
2016-11-08T11:57:44.076Z,1.26
2016-11-08T11:58:44.572Z,0.81
2016-11-08T11:59:44.925Z,0.52
2016-11-08T12:00:45.444Z,0.52
2016-11-08T12:01:46.071Z,0.07
2016-11-08T12:02:46.437Z,0.90
2016-11-08T12:03:47.077Z,0.81
2016-11-08T12:04:47.595Z,1.18
2016-11-08T12:05:47.936Z,1.18
2016-11-08T12:06:48.429Z,1.00
2016-11-08T12:07:48.930Z,0.52
2016-11-08T12:08:49.435Z,0.71
2016-11-08T12:09:49.935Z,0.99
2016-11-08T12:10:50.584Z,0.62
2016-11-08T12:11:50.951Z,0.81
2016-11-08T12:12:51.586Z,0.71
2016-11-08T12:13:51.940Z,0.81
2016-11-08T12:14:52.459Z,0.16
2016-11-08T12:15:52.931Z,0.44
2016-11-08T12:16:53.437Z,0.43
2016-11-08T12:17:54.072Z,0.44
2016-11-08T12:18:54.464Z,2.19
2016-11-08T12:19:54.945Z,1.83
2016-11-08T12:20:55.586Z,0.99
2016-11-08T12:21:55.922Z,1.37
2016-11-08T12:22:56.430Z,1.17
2016-11-08T12:23:56.926Z,0.81
2016-11-08T12:24:57.565Z,0.07
2016-11-08T12:25:58.214Z,0.90
2016-11-08T12:26:58.423Z,0.99
2016-11-08T12:27:58.909Z,0.99
2016-11-08T12:28:59.420Z,0.90
2016-11-08T12:29:59.934Z,1.00
2016-11-08T12:31:00.440Z,0.73
2016-11-08T12:32:00.920Z,0.52
2016-11-08T12:33:01.430Z,0.90
2016-11-08T12:34:02.046Z,0.81
2016-11-08T12:35:02.409Z,0.89
2016-11-08T12:36:02.912Z,1.09
2016-11-08T12:37:03.433Z,0.90
2016-11-08T12:38:04.045Z,0.72
2016-11-08T12:39:04.423Z,0.90
2016-11-08T12:40:05.040Z,0.52
2016-11-08T12:41:05.422Z,0.44
2016-11-08T12:42:05.907Z,0.80
2016-11-08T12:43:06.538Z,1.27
2016-11-08T12:44:06.915Z,0.71
2016-11-08T12:45:07.401Z,0.52
2016-11-08T12:46:07.888Z,0.81
2016-11-08T12:47:08.400Z,1.36
2016-11-08T12:48:09.039Z,0.90
2016-11-08T12:49:09.392Z,1.18
2016-11-08T12:50:10.039Z,0.71
2016-11-08T12:51:10.396Z,2.46
2016-11-08T12:52:11.043Z,2.30
2016-11-08T12:53:11.543Z,1.27
2016-11-08T12:54:12.038Z,0.90
2016-11-08T12:55:12.399Z,0.71
2016-11-08T12:56:12.921Z,0.81
2016-11-08T12:57:13.394Z,2.48
2016-11-08T12:58:13.897Z,1.00
2016-11-08T12:59:14.383Z,1.27
2016-11-08T13:00:14.937Z,1.05
2016-11-08T13:01:15.529Z,1.09
2016-11-08T13:02:15.902Z,0.25
2016-11-08T13:03:16.530Z,0.71
2016-11-08T13:04:17.042Z,0.99
2016-11-08T13:05:17.520Z,0.81
2016-11-08T13:06:17.872Z,0.81
2016-11-08T13:07:18.371Z,0.99
2016-11-08T13:08:19.167Z,1.08
2016-11-08T13:09:19.518Z,0.89
2016-11-08T13:10:20.013Z,0.81
2016-11-08T13:11:20.517Z,1.37
2016-11-08T13:12:21.022Z,1.56
2016-11-08T13:13:21.515Z,1.56
2016-11-08T13:14:22.014Z,1.45
2016-11-08T13:15:22.399Z,1.27
2016-11-08T13:16:22.864Z,2.30
2016-11-08T13:17:23.371Z,0.95
2016-11-08T13:18:23.859Z,0.99
2016-11-08T13:19:24.373Z,1.18
2016-11-08T13:20:25.004Z,0.81
2016-11-08T13:21:25.506Z,1.08
2016-11-08T13:22:26.005Z,1.45
2016-11-08T13:23:26.374Z,1.27
2016-11-08T13:24:26.850Z,0.89
2016-11-08T13:25:27.501Z,0.81